createdAt,value
2023-05-24T00:00:14.625Z,14.60
2023-05-24T00:01:14.601Z,11.40
2023-05-24T00:02:14.591Z,11.30
2023-05-24T00:03:14.657Z,9.90
2023-05-24T00:04:14.725Z,12.10
2023-05-24T00:05:14.557Z,10.70
2023-05-24T00:06:14.554Z,13.20
2023-05-24T00:07:14.529Z,11.40
2023-05-24T00:08:14.528Z,9.30
2023-05-24T00:09:14.543Z,12.10
2023-05-24T00:10:14.513Z,10.50
2023-05-24T00:11:14.481Z,11.60
2023-05-24T00:12:14.487Z,11.90
2023-05-24T00:13:14.490Z,10.30
2023-05-24T00:14:14.481Z,7.10
2023-05-24T00:15:14.432Z,11.40
2023-05-24T00:16:14.503Z,8.80
2023-05-24T00:17:14.410Z,7.80
2023-05-24T00:18:14.421Z,11.80
2023-05-24T00:19:14.409Z,10.00
2023-05-24T00:20:14.575Z,9.50
2023-05-24T00:21:14.374Z,12.40
2023-05-24T00:22:14.358Z,10.40
2023-05-24T00:23:14.363Z,12.10
2023-05-24T00:24:14.341Z,12.00
2023-05-24T00:25:14.336Z,9.60
2023-05-24T00:26:14.328Z,10.30
2023-05-24T00:27:14.298Z,10.90
2023-05-24T00:28:14.306Z,8.50
2023-05-24T00:29:14.285Z,10.10
2023-05-24T00:30:14.277Z,12.20
2023-05-24T00:31:14.264Z,9.00
2023-05-24T00:32:14.328Z,12.50
2023-05-24T00:33:14.252Z,12.00
2023-05-24T00:34:14.224Z,9.40
2023-05-24T00:35:14.242Z,8.60
2023-05-24T00:36:14.192Z,10.20
2023-05-24T00:37:14.232Z,14.00
2023-05-24T00:38:14.180Z,9.70
2023-05-24T00:39:14.158Z,9.90
2023-05-24T00:40:14.162Z,11.10
2023-05-24T00:41:14.151Z,9.30
2023-05-24T00:42:14.170Z,11.10
2023-05-24T00:43:14.114Z,10.80
2023-05-24T00:44:14.141Z,10.40
2023-05-24T00:45:14.106Z,11.10
2023-05-24T00:46:14.189Z,11.90
2023-05-24T00:47:14.146Z,9.70
2023-05-24T00:48:14.061Z,11.60
2023-05-24T00:49:14.054Z,10.70
2023-05-24T00:50:14.033Z,11.30
2023-05-24T00:51:14.053Z,8.70
2023-05-24T00:52:14.048Z,12.40
2023-05-24T00:53:14.011Z,13.90
2023-05-24T00:54:14.002Z,11.30
2023-05-24T00:55:13.982Z,9.40
2023-05-24T00:56:14.024Z,10.90
2023-05-24T00:57:13.999Z,12.20
2023-05-24T00:58:13.965Z,10.80
2023-05-24T00:59:13.937Z,9.30
2023-05-24T01:00:13.934Z,13.70
2023-05-24T01:01:13.954Z,12.00
2023-05-24T01:02:13.941Z,12.30
2023-05-24T01:03:14.898Z,13.10
2023-05-24T01:04:13.883Z,12.90
2023-05-24T01:05:13.983Z,10.80
2023-05-24T01:06:13.892Z,10.80
2023-05-24T01:07:13.854Z,9.50
2023-05-24T01:08:13.863Z,14.60
2023-05-24T01:09:13.896Z,11.80
2023-05-24T01:10:14.112Z,11.50
2023-05-24T01:11:13.838Z,10.80
2023-05-24T01:12:13.821Z,13.00
2023-05-24T01:13:13.802Z,11.80
2023-05-24T01:14:13.791Z,11.50
2023-05-24T01:15:13.803Z,10.80
2023-05-24T01:16:13.836Z,11.40
2023-05-24T01:17:14.363Z,10.90
2023-05-24T01:18:13.835Z,15.80
2023-05-24T01:19:13.782Z,16.30
2023-05-24T01:20:13.810Z,12.00
2023-05-24T01:21:13.733Z,11.70
2023-05-24T01:22:13.768Z,9.30
2023-05-24T01:23:13.702Z,10.10
2023-05-24T01:24:13.765Z,10.00
2023-05-24T01:25:13.723Z,9.90
2023-05-24T01:26:13.851Z,9.60
2023-05-24T01:27:13.749Z,13.40
2023-05-24T01:28:13.760Z,8.80
2023-05-24T01:29:13.714Z,12.30
2023-05-24T01:30:13.637Z,10.00
2023-05-24T01:31:13.652Z,10.90
2023-05-24T01:32:13.575Z,10.20
2023-05-24T01:33:14.910Z,9.40
2023-05-24T01:34:13.687Z,12.30
2023-05-24T01:35:13.555Z,9.40
2023-05-24T01:36:13.546Z,12.60
2023-05-24T01:37:13.525Z,9.80
2023-05-24T01:38:13.757Z,11.70
2023-05-24T01:39:13.485Z,11.90
2023-05-24T01:40:13.510Z,9.60
2023-05-24T01:41:13.470Z,13.90
2023-05-24T01:42:13.447Z,9.80
2023-05-24T01:43:13.465Z,12.30
2023-05-24T01:44:13.428Z,10.10
2023-05-24T01:45:13.430Z,11.20
2023-05-24T01:46:13.427Z,11.60
2023-05-24T01:47:13.459Z,14.60
2023-05-24T01:48:13.398Z,9.80
2023-05-24T01:49:13.373Z,10.80
2023-05-24T01:50:13.363Z,9.90
2023-05-24T01:51:13.354Z,12.70
2023-05-24T01:52:13.413Z,13.20
2023-05-24T01:53:13.334Z,10.20
2023-05-24T01:54:13.332Z,11.50
2023-05-24T01:55:13.302Z,14.30
2023-05-24T01:56:13.314Z,9.10
2023-05-24T01:57:13.294Z,9.90
2023-05-24T01:58:13.277Z,8.30
2023-05-24T01:59:13.260Z,13.00
2023-05-24T02:00:13.249Z,9.90
2023-05-24T02:01:13.321Z,10.10
2023-05-24T02:02:13.677Z,9.60
2023-05-24T02:03:13.240Z,12.70
2023-05-24T02:04:13.211Z,11.90
2023-05-24T02:05:13.199Z,12.60
2023-05-24T02:06:13.201Z,9.80
2023-05-24T02:07:13.187Z,8.30
2023-05-24T02:08:13.157Z,12.80
2023-05-24T02:09:13.160Z,13.80
2023-05-24T02:10:13.137Z,14.10
2023-05-24T02:11:13.168Z,14.30
2023-05-24T02:12:13.168Z,13.30
2023-05-24T02:13:13.130Z,10.00
2023-05-24T02:14:13.121Z,11.70
2023-05-24T02:15:13.139Z,12.90
2023-05-24T02:16:13.110Z,13.60
2023-05-24T02:17:13.078Z,10.40
2023-05-24T02:18:13.178Z,11.20
2023-05-24T02:19:13.047Z,9.60
2023-05-24T02:20:13.140Z,8.30
2023-05-24T02:21:13.025Z,9.60
2023-05-24T02:22:12.997Z,11.10
2023-05-24T02:23:12.988Z,12.10
2023-05-24T02:24:12.998Z,15.70
2023-05-24T02:25:13.017Z,10.30
2023-05-24T02:26:12.965Z,15.40
2023-05-24T02:27:12.947Z,11.40
2023-05-24T02:28:12.945Z,10.80
2023-05-24T02:29:12.926Z,10.40
2023-05-24T02:30:12.957Z,10.80
2023-05-24T02:31:12.957Z,10.60
2023-05-24T02:32:12.936Z,12.70
2023-05-24T02:33:12.997Z,10.00
2023-05-24T02:34:12.886Z,11.40
2023-05-24T02:35:12.890Z,9.60
2023-05-24T02:36:12.858Z,11.50
2023-05-24T02:37:12.843Z,10.20
2023-05-24T02:38:12.833Z,9.70
2023-05-24T02:39:12.892Z,14.10
2023-05-24T02:40:12.814Z,9.80
2023-05-24T02:41:12.802Z,11.20
2023-05-24T02:42:12.810Z,11.50
2023-05-24T02:43:12.778Z,9.90
2023-05-24T02:44:12.785Z,11.50
2023-05-24T02:45:12.742Z,11.60
2023-05-24T02:46:12.789Z,12.00
2023-05-24T02:47:12.744Z,11.80
2023-05-24T02:48:12.719Z,9.40
2023-05-24T02:49:12.718Z,12.80
2023-05-24T02:50:12.715Z,10.20
2023-05-24T02:51:12.686Z,12.80
2023-05-24T02:52:12.672Z,12.80
2023-05-24T02:53:12.868Z,12.00
2023-05-24T02:54:12.667Z,11.50
2023-05-24T02:55:12.683Z,9.70
2023-05-24T02:56:12.629Z,13.00
2023-05-24T02:57:12.614Z,9.70
2023-05-24T02:58:12.949Z,12.10
2023-05-24T02:59:12.601Z,12.60
2023-05-24T03:00:12.586Z,10.80
2023-05-24T03:01:12.621Z,8.60
2023-05-24T03:02:12.557Z,11.30
2023-05-24T03:03:12.655Z,11.40
2023-05-24T03:04:12.594Z,13.60
2023-05-24T03:05:12.522Z,9.00
2023-05-24T03:06:12.524Z,14.20
2023-05-24T03:07:12.560Z,11.20
2023-05-24T03:08:13.001Z,12.30
2023-05-24T03:09:12.498Z,16.00
2023-05-24T03:10:15.027Z,8.70
2023-05-24T03:11:12.462Z,12.60
2023-05-24T03:12:12.457Z,9.50
2023-05-24T03:13:12.441Z,11.60
2023-05-24T03:14:12.430Z,11.60
2023-05-24T03:15:12.424Z,11.00
2023-05-24T03:16:12.451Z,12.70
2023-05-24T03:17:12.413Z,9.20
2023-05-24T03:18:12.378Z,12.00
2023-05-24T03:19:12.374Z,8.50
2023-05-24T03:20:12.394Z,11.00
2023-05-24T03:21:12.366Z,12.90
2023-05-24T03:22:12.417Z,10.70
2023-05-24T03:23:12.310Z,10.00
2023-05-24T03:24:12.306Z,8.80
2023-05-24T03:25:12.299Z,10.50
2023-05-24T03:26:12.315Z,10.90
2023-05-24T03:27:12.276Z,10.10
2023-05-24T03:28:12.261Z,9.40
2023-05-24T03:29:12.279Z,13.00
2023-05-24T03:30:12.259Z,10.40
2023-05-24T03:31:12.267Z,10.70
2023-05-24T03:32:12.222Z,12.20
2023-05-24T03:33:12.213Z,10.00
2023-05-24T03:34:12.203Z,11.10
2023-05-24T03:35:12.263Z,13.20
2023-05-24T03:36:12.182Z,13.80
2023-05-24T03:37:12.169Z,11.70
2023-05-24T03:38:12.164Z,10.80
2023-05-24T03:39:12.136Z,10.90
2023-05-24T03:40:12.154Z,11.50
2023-05-24T03:41:12.140Z,10.80
2023-05-24T03:42:12.104Z,12.30
2023-05-24T03:43:12.109Z,10.90
2023-05-24T03:44:12.081Z,14.00
2023-05-24T03:45:12.102Z,10.80
2023-05-24T03:46:12.083Z,9.30
2023-05-24T03:47:12.041Z,13.70
2023-05-24T03:48:12.030Z,11.40
2023-05-24T03:49:12.045Z,10.60
2023-05-24T03:50:12.033Z,13.60
2023-05-24T03:51:12.010Z,14.90
2023-05-24T03:52:12.000Z,13.30
2023-05-24T03:53:11.967Z,9.50
2023-05-24T03:54:12.012Z,9.80
2023-05-24T03:55:11.957Z,13.80
2023-05-24T03:56:11.953Z,9.90
2023-05-24T03:57:11.933Z,12.00
2023-05-24T03:58:11.916Z,10.40
2023-05-24T03:59:12.318Z,9.10
2023-05-24T04:00:11.891Z,8.80
2023-05-24T04:01:18.827Z,12.20
2023-05-24T04:02:12.934Z,9.90
2023-05-24T04:03:12.058Z,12.10
2023-05-24T04:04:11.917Z,9.60
2023-05-24T04:05:11.852Z,10.60
2023-05-24T04:06:11.842Z,11.40
2023-05-24T04:07:11.857Z,10.10
2023-05-24T04:08:11.814Z,13.60
2023-05-24T04:09:11.794Z,10.20
2023-05-24T04:10:11.800Z,15.10
2023-05-24T04:11:11.771Z,16.90
2023-05-24T04:12:11.795Z,14.60
2023-05-24T04:13:11.781Z,12.60
2023-05-24T04:14:11.743Z,11.70
2023-05-24T04:15:11.740Z,14.50
2023-05-24T04:16:11.712Z,12.70
2023-05-24T04:17:11.796Z,11.80
2023-05-24T04:18:11.780Z,13.80
2023-05-24T04:19:11.696Z,14.10
2023-05-24T04:20:11.760Z,12.90
2023-05-24T04:21:11.678Z,14.60
2023-05-24T04:22:11.664Z,14.60
2023-05-24T04:23:11.646Z,11.90
2023-05-24T04:24:11.632Z,16.20
2023-05-24T04:25:11.642Z,14.20
2023-05-24T04:26:11.623Z,12.80
2023-05-24T04:27:11.616Z,16.20
2023-05-24T04:28:11.587Z,15.70
2023-05-24T04:29:11.581Z,15.80
2023-05-24T04:30:11.555Z,13.40
2023-05-24T04:31:11.577Z,13.60
2023-05-24T04:32:11.549Z,11.80
2023-05-24T04:33:11.626Z,13.30
2023-05-24T04:34:11.527Z,10.40
2023-05-24T04:35:11.507Z,13.00
2023-05-24T04:36:11.697Z,12.90
2023-05-24T04:37:11.487Z,12.20
2023-05-24T04:38:11.467Z,12.10
2023-05-24T04:39:11.502Z,16.50
2023-05-24T04:40:11.451Z,13.60
2023-05-24T04:41:11.489Z,10.50
2023-05-24T04:42:11.447Z,14.40
2023-05-24T04:43:11.425Z,15.40
2023-05-24T04:44:11.413Z,15.50
2023-05-24T04:45:11.415Z,12.30
2023-05-24T04:46:11.536Z,11.50
2023-05-24T04:47:11.369Z,11.60
2023-05-24T04:48:11.364Z,12.30
2023-05-24T04:49:11.346Z,15.20
2023-05-24T04:50:11.641Z,11.30
2023-05-24T04:51:11.340Z,12.40
2023-05-24T04:52:11.357Z,12.30
2023-05-24T04:53:11.317Z,16.90
2023-05-24T04:54:11.311Z,13.90
2023-05-24T04:55:11.316Z,15.60
2023-05-24T04:56:11.285Z,16.20
2023-05-24T04:57:11.289Z,14.20
2023-05-24T04:58:11.268Z,13.80
2023-05-24T04:59:11.261Z,16.60
2023-05-24T05:00:11.410Z,16.80
2023-05-24T05:01:11.229Z,16.40
2023-05-24T05:02:11.300Z,11.70
2023-05-24T05:03:11.275Z,13.60
2023-05-24T05:04:11.262Z,15.90
2023-05-24T05:05:11.179Z,16.30
2023-05-24T05:06:11.155Z,16.90
2023-05-24T05:07:11.152Z,15.30
2023-05-24T05:08:11.173Z,17.40
2023-05-24T05:09:11.142Z,12.50
2023-05-24T05:10:11.114Z,15.20
2023-05-24T05:11:11.105Z,18.90
2023-05-24T05:12:11.105Z,11.00
2023-05-24T05:13:11.082Z,12.60
2023-05-24T05:14:11.365Z,17.40
2023-05-24T05:15:11.056Z,17.90
2023-05-24T05:16:11.094Z,18.50
2023-05-24T05:17:11.036Z,11.50
2023-05-24T05:18:11.115Z,14.40
2023-05-24T05:19:11.016Z,15.30
2023-05-24T05:20:11.028Z,15.10
2023-05-24T05:21:10.984Z,16.50
2023-05-24T05:22:10.997Z,15.40
2023-05-24T05:23:10.971Z,13.80
2023-05-24T05:24:10.974Z,17.50
2023-05-24T05:25:10.941Z,14.10
2023-05-24T05:26:10.923Z,12.50
2023-05-24T05:27:10.928Z,15.50
2023-05-24T05:28:10.912Z,16.90
2023-05-24T05:29:10.883Z,15.20
2023-05-24T05:30:10.893Z,15.70
2023-05-24T05:31:10.870Z,12.20
2023-05-24T05:32:10.889Z,16.00
2023-05-24T05:33:10.982Z,16.60
2023-05-24T05:34:10.837Z,18.90
2023-05-24T05:35:10.825Z,16.40
2023-05-24T05:36:10.814Z,13.40
2023-05-24T05:37:10.841Z,17.70
2023-05-24T05:38:10.807Z,13.90
2023-05-24T05:39:10.809Z,19.50
2023-05-24T05:40:10.769Z,13.20
2023-05-24T05:41:10.764Z,15.40
2023-05-24T05:42:10.759Z,18.50
2023-05-24T05:43:10.730Z,12.70
2023-05-24T05:44:10.722Z,16.70
2023-05-24T05:45:10.711Z,16.40
2023-05-24T05:46:10.745Z,18.60
2023-05-24T05:47:10.699Z,15.10
2023-05-24T05:48:10.705Z,19.80
2023-05-24T05:49:10.665Z,12.10
2023-05-24T05:50:10.673Z,14.90
2023-05-24T05:51:10.666Z,14.90
2023-05-24T05:52:10.949Z,15.20
2023-05-24T05:53:10.620Z,15.40
2023-05-24T05:54:10.607Z,17.90
2023-05-24T05:55:10.607Z,17.10
2023-05-24T05:56:10.604Z,19.80
2023-05-24T05:57:10.688Z,19.70
2023-05-24T05:58:10.570Z,15.20
2023-05-24T05:59:10.556Z,16.30
2023-05-24T06:00:10.534Z,17.90
2023-05-24T06:01:10.600Z,17.00
2023-05-24T06:02:10.642Z,18.30
2023-05-24T06:03:10.608Z,19.70
2023-05-24T06:04:10.669Z,18.90
2023-05-24T06:05:10.556Z,13.20
2023-05-24T06:06:10.481Z,20.60
2023-05-24T06:07:10.475Z,13.20
2023-05-24T06:08:10.450Z,15.00
2023-05-24T06:09:10.477Z,20.10
2023-05-24T06:10:10.437Z,17.70
2023-05-24T06:11:10.420Z,20.00
2023-05-24T06:12:10.394Z,11.60
2023-05-24T06:13:10.387Z,15.40
2023-05-24T06:14:10.373Z,19.20
2023-05-24T06:15:10.393Z,16.00
2023-05-24T06:16:10.385Z,19.00
2023-05-24T06:17:10.340Z,17.70
2023-05-24T06:18:10.352Z,19.20
2023-05-24T06:19:10.327Z,17.40
2023-05-24T06:20:10.380Z,16.60
2023-05-24T06:21:10.309Z,15.80
2023-05-24T06:22:10.295Z,18.80
2023-05-24T06:23:10.292Z,17.20
2023-05-24T06:24:10.473Z,14.70
2023-05-24T06:25:10.255Z,17.60
2023-05-24T06:26:10.238Z,17.90
2023-05-24T06:27:10.231Z,16.10
2023-05-24T06:28:10.222Z,21.30
2023-05-24T06:29:10.231Z,14.50
2023-05-24T06:30:10.296Z,16.70
2023-05-24T06:31:10.223Z,13.30
2023-05-24T06:32:10.182Z,16.80
2023-05-24T06:33:10.182Z,17.20
2023-05-24T06:34:10.185Z,15.60
2023-05-24T06:35:10.149Z,17.70
2023-05-24T06:36:10.135Z,17.90
2023-05-24T06:37:10.119Z,16.80
2023-05-24T06:38:10.140Z,15.80
2023-05-24T06:39:10.109Z,15.60
2023-05-24T06:40:10.101Z,15.10
2023-05-24T06:41:10.082Z,15.10
2023-05-24T06:42:10.070Z,18.40
2023-05-24T06:43:10.063Z,14.90
2023-05-24T06:44:10.034Z,19.10
2023-05-24T06:45:10.033Z,21.30
2023-05-24T06:46:10.023Z,16.70
2023-05-24T06:47:10.065Z,19.30
2023-05-24T06:48:10.173Z,21.00
2023-05-24T06:49:10.042Z,15.40
2023-05-24T06:50:09.994Z,17.90
2023-05-24T06:51:09.973Z,15.00
2023-05-24T06:52:09.968Z,21.50
2023-05-24T06:53:09.947Z,15.50
2023-05-24T06:54:09.930Z,17.80
2023-05-24T06:55:09.923Z,16.40
2023-05-24T06:56:09.906Z,16.50
2023-05-24T06:57:09.912Z,14.60
2023-05-24T06:58:09.877Z,16.70
2023-05-24T06:59:09.883Z,18.60
2023-05-24T07:00:09.863Z,17.00
2023-05-24T07:01:09.891Z,18.00
2023-05-24T07:02:09.858Z,19.90
2023-05-24T07:03:09.855Z,15.90
2023-05-24T07:04:09.861Z,17.00
2023-05-24T07:05:09.804Z,15.40
2023-05-24T07:06:10.097Z,15.10
2023-05-24T07:07:09.779Z,18.10
2023-05-24T07:08:09.771Z,14.60
2023-05-24T07:09:09.762Z,16.30
2023-05-24T07:10:09.746Z,15.60
2023-05-24T07:11:09.816Z,15.80
2023-05-24T07:12:09.713Z,16.20
2023-05-24T07:13:09.703Z,17.00
2023-05-24T07:14:09.703Z,15.40
2023-05-24T07:15:09.743Z,17.50
2023-05-24T07:16:09.708Z,18.60
2023-05-24T07:17:09.928Z,15.70
2023-05-24T07:18:09.708Z,18.10
2023-05-24T07:19:09.674Z,19.20
2023-05-24T07:20:09.686Z,19.50
2023-05-24T07:21:09.623Z,15.20
2023-05-24T07:22:09.631Z,19.40
2023-05-24T07:23:09.631Z,23.10
2023-05-24T07:24:09.586Z,16.10
2023-05-24T07:25:09.907Z,16.90
2023-05-24T07:26:09.562Z,18.60
2023-05-24T07:27:09.556Z,16.60
2023-05-24T07:28:09.543Z,19.50
2023-05-24T07:29:09.530Z,15.70
2023-05-24T07:30:19.619Z,14.50
2023-05-24T07:31:10.500Z,15.20
2023-05-24T07:32:09.540Z,15.30
2023-05-24T07:33:09.507Z,14.50
2023-05-24T07:34:09.492Z,17.50
2023-05-24T07:35:09.478Z,18.10
2023-05-24T07:36:09.465Z,16.50
2023-05-24T07:37:09.438Z,17.50
2023-05-24T07:38:09.463Z,19.10
2023-05-24T07:39:09.436Z,13.90
2023-05-24T07:40:09.403Z,15.80
2023-05-24T07:41:09.388Z,16.10
2023-05-24T07:42:09.380Z,16.10
2023-05-24T07:43:09.373Z,16.10
2023-05-24T07:44:09.388Z,16.60
2023-05-24T07:45:09.348Z,15.20
2023-05-24T07:46:09.369Z,15.20
2023-05-24T07:47:09.330Z,17.00
2023-05-24T07:48:09.379Z,14.90
2023-05-24T07:49:09.321Z,16.10
2023-05-24T07:50:09.287Z,15.30
2023-05-24T07:51:09.286Z,15.70
2023-05-24T07:52:09.268Z,13.80
2023-05-24T07:53:09.283Z,15.90
2023-05-24T07:54:09.264Z,19.20
2023-05-24T07:55:09.240Z,14.40
2023-05-24T07:56:09.226Z,18.50
2023-05-24T07:57:09.550Z,14.70
2023-05-24T07:58:09.223Z,17.70
2023-05-24T07:59:09.186Z,14.50
2023-05-24T08:00:09.216Z,15.70
2023-05-24T08:01:09.167Z,16.70
2023-05-24T08:02:09.168Z,14.70
2023-05-24T08:03:09.252Z,15.40
2023-05-24T08:04:09.164Z,16.30
2023-05-24T08:05:09.137Z,15.60
2023-05-24T08:06:09.132Z,15.80
2023-05-24T08:07:10.993Z,16.40
2023-05-24T08:08:09.085Z,20.80
2023-05-24T08:09:09.071Z,16.80
2023-05-24T08:10:09.090Z,10.80
2023-05-24T08:11:09.061Z,16.40
2023-05-24T08:12:09.056Z,14.20
2023-05-24T08:13:09.055Z,14.90
2023-05-24T08:14:09.020Z,14.00
2023-05-24T08:15:09.015Z,15.40
2023-05-24T08:16:09.027Z,14.80
2023-05-24T08:17:09.002Z,15.60
2023-05-24T08:18:09.013Z,14.70
2023-05-24T08:19:08.965Z,10.60
2023-05-24T08:20:09.058Z,13.90
2023-05-24T08:21:08.978Z,14.60
2023-05-24T08:22:08.928Z,13.80
2023-05-24T08:23:08.922Z,12.40
2023-05-24T08:24:09.665Z,14.70
2023-05-24T08:25:08.892Z,14.40
2023-05-24T08:26:08.939Z,12.20
2023-05-24T08:27:08.887Z,16.80
2023-05-24T08:28:08.927Z,14.50
2023-05-24T08:29:08.868Z,15.50
2023-05-24T08:30:08.874Z,16.00
2023-05-24T08:31:08.848Z,9.40
2023-05-24T08:32:08.932Z,13.50
2023-05-24T08:33:08.837Z,12.90
2023-05-24T08:34:08.794Z,15.00
2023-05-24T08:35:20.227Z,14.20
2023-05-24T08:36:10.004Z,12.50
2023-05-24T08:37:08.810Z,15.60
2023-05-24T08:38:08.763Z,11.10
2023-05-24T08:39:08.733Z,9.20
2023-05-24T08:40:08.739Z,11.80
2023-05-24T08:41:08.714Z,13.90
2023-05-24T08:42:10.157Z,15.00
2023-05-24T08:43:08.687Z,11.20
2023-05-24T08:44:08.685Z,13.50
2023-05-24T08:45:08.698Z,12.20
2023-05-24T08:46:08.709Z,13.00
2023-05-24T08:47:08.643Z,11.30
2023-05-24T08:48:08.696Z,12.90
2023-05-24T08:49:08.681Z,11.50
2023-05-24T08:50:08.764Z,11.80
2023-05-24T08:51:08.600Z,8.70
2023-05-24T08:52:08.612Z,12.20
2023-05-24T08:53:08.580Z,12.30
2023-05-24T08:54:08.583Z,15.00
2023-05-24T08:55:08.571Z,20.10
2023-05-24T08:56:08.622Z,10.10
2023-05-24T08:57:08.574Z,15.70
2023-05-24T08:58:08.555Z,12.50
2023-05-24T08:59:08.531Z,12.40
2023-05-24T09:00:08.511Z,9.50
2023-05-24T09:01:08.509Z,9.20
2023-05-24T09:02:08.543Z,9.10
2023-05-24T09:03:08.535Z,18.60
2023-05-24T09:04:08.557Z,12.20
2023-05-24T09:05:08.450Z,16.80
2023-05-24T09:06:08.442Z,17.30
2023-05-24T09:07:08.421Z,13.90
2023-05-24T09:08:08.432Z,10.50
2023-05-24T09:09:08.405Z,9.30
2023-05-24T09:10:08.389Z,11.00
2023-05-24T09:11:08.383Z,12.50
2023-05-24T09:12:08.358Z,10.60
2023-05-24T09:13:08.363Z,12.90
2023-05-24T09:14:08.404Z,11.70
2023-05-24T09:15:08.652Z,12.30
2023-05-24T09:16:08.453Z,11.60
2023-05-24T09:17:08.321Z,9.10
2023-05-24T09:18:08.394Z,12.50
2023-05-24T09:19:08.301Z,14.30
2023-05-24T09:20:08.304Z,12.60
2023-05-24T09:21:08.262Z,11.70
2023-05-24T09:22:08.270Z,9.90
2023-05-24T09:23:08.239Z,14.00
2023-05-24T09:24:08.240Z,13.10
2023-05-24T09:25:08.352Z,12.30
2023-05-24T09:26:08.229Z,11.30
2023-05-24T09:27:08.203Z,10.60
2023-05-24T09:28:08.188Z,9.60
2023-05-24T09:29:08.183Z,10.80
2023-05-24T09:30:08.196Z,10.40
2023-05-24T09:31:08.949Z,10.00
2023-05-24T09:32:08.160Z,10.10
2023-05-24T09:33:08.206Z,11.20
2023-05-24T09:34:08.127Z,9.20
2023-05-24T09:35:08.100Z,13.50
2023-05-24T09:36:08.115Z,11.70
2023-05-24T09:37:08.077Z,8.70
2023-05-24T09:38:08.101Z,11.20
2023-05-24T09:39:08.064Z,9.00
2023-05-24T09:40:08.211Z,10.10
2023-05-24T09:41:08.060Z,7.10
2023-05-24T09:42:08.040Z,10.20
2023-05-24T09:43:08.011Z,7.70
2023-05-24T09:44:07.997Z,9.20
2023-05-24T09:45:08.009Z,11.40
2023-05-24T09:46:08.245Z,9.40
2023-05-24T09:47:08.055Z,7.90
2023-05-24T09:48:08.010Z,10.00
2023-05-24T09:49:07.972Z,11.00
2023-05-24T09:50:07.953Z,10.80
2023-05-24T09:51:07.947Z,8.30
2023-05-24T09:52:07.981Z,7.50
2023-05-24T09:53:07.899Z,12.10
2023-05-24T09:54:07.908Z,9.70
2023-05-24T09:55:07.901Z,9.50
2023-05-24T09:56:07.865Z,10.70
2023-05-24T09:57:07.851Z,8.10
2023-05-24T09:58:07.853Z,9.40
2023-05-24T09:59:07.852Z,11.30
2023-05-24T10:00:07.827Z,10.80
2023-05-24T10:01:07.976Z,8.70
2023-05-24T10:02:07.823Z,9.00
2023-05-24T10:03:08.101Z,7.50
2023-05-24T10:04:09.900Z,7.70
2023-05-24T10:05:07.765Z,7.90
2023-05-24T10:06:08.054Z,9.10
2023-05-24T10:07:07.749Z,10.80
2023-05-24T10:08:07.728Z,9.60
2023-05-24T10:09:07.791Z,8.10
2023-05-24T10:10:07.849Z,10.20
2023-05-24T10:11:07.708Z,9.30
2023-05-24T10:12:07.706Z,8.30
2023-05-24T10:13:07.700Z,10.40
2023-05-24T10:14:07.663Z,8.20
2023-05-24T10:15:07.662Z,9.70
2023-05-24T10:16:07.642Z,15.40
2023-05-24T10:17:07.781Z,7.90
2023-05-24T10:18:08.576Z,10.60
2023-05-24T10:19:07.680Z,7.50
2023-05-24T10:20:07.723Z,7.40
2023-05-24T10:21:07.603Z,9.60
2023-05-24T10:22:07.588Z,8.60
2023-05-24T10:23:07.596Z,9.10
2023-05-24T10:24:08.970Z,8.30
2023-05-24T10:25:07.541Z,9.80
2023-05-24T10:26:07.542Z,11.40
2023-05-24T10:27:07.532Z,7.80
2023-05-24T10:28:07.526Z,12.30
2023-05-24T10:29:07.505Z,8.70
2023-05-24T10:30:09.442Z,9.90
2023-05-24T10:31:07.563Z,9.70
2023-05-24T10:32:07.474Z,10.30
2023-05-24T10:33:07.494Z,10.80
2023-05-24T10:34:08.921Z,10.20
2023-05-24T10:35:07.428Z,11.70
2023-05-24T10:36:09.688Z,11.60
2023-05-24T10:37:07.416Z,7.60
2023-05-24T10:38:07.408Z,7.60
2023-05-24T10:39:07.382Z,8.30
2023-05-24T10:40:07.378Z,8.20
2023-05-24T10:41:08.021Z,10.50
2023-05-24T10:42:09.610Z,7.70
2023-05-24T10:43:07.344Z,8.10
2023-05-24T10:44:10.198Z,9.10
2023-05-24T10:45:07.313Z,7.60
2023-05-24T10:46:07.498Z,10.50
2023-05-24T10:47:07.290Z,9.30
2023-05-24T10:48:07.452Z,8.40
2023-05-24T10:49:07.295Z,9.80
2023-05-24T10:50:07.428Z,6.30
2023-05-24T10:51:07.268Z,7.60
2023-05-24T10:52:07.229Z,8.00
2023-05-24T10:53:07.223Z,8.10
2023-05-24T10:54:08.982Z,7.20
2023-05-24T10:55:07.224Z,9.40
2023-05-24T10:56:07.185Z,8.20
2023-05-24T10:57:07.196Z,9.10
2023-05-24T10:58:07.168Z,8.30
2023-05-24T10:59:07.154Z,8.90
2023-05-24T11:00:08.483Z,7.30
2023-05-24T11:01:07.133Z,8.30
2023-05-24T11:02:07.184Z,8.20
2023-05-24T11:03:07.188Z,10.90
2023-05-24T11:04:07.107Z,7.70
2023-05-24T11:05:07.141Z,11.80
2023-05-24T11:06:07.178Z,10.60
2023-05-24T11:07:07.064Z,11.20
2023-05-24T11:08:07.074Z,12.70
2023-05-24T11:09:07.055Z,7.40
2023-05-24T11:10:07.045Z,8.40
2023-05-24T11:11:22.426Z,10.00
2023-05-24T11:12:08.075Z,12.50
2023-05-24T11:13:06.990Z,8.30
2023-05-24T11:14:06.996Z,10.20
2023-05-24T11:15:06.977Z,14.70
2023-05-24T11:16:06.990Z,14.30
2023-05-24T11:17:06.977Z,9.30
2023-05-24T11:18:07.027Z,9.30
2023-05-24T11:19:06.948Z,8.80
2023-05-24T11:20:06.939Z,9.40
2023-05-24T11:21:06.911Z,9.10
2023-05-24T11:22:06.951Z,8.40
2023-05-24T11:23:06.908Z,12.10
2023-05-24T11:24:06.871Z,8.80
2023-05-24T11:25:06.873Z,8.40
2023-05-24T11:26:06.863Z,8.70
2023-05-24T11:27:06.857Z,7.30
2023-05-24T11:28:06.870Z,5.10
2023-05-24T11:29:06.815Z,14.30
2023-05-24T11:30:06.815Z,8.60
2023-05-24T11:31:06.834Z,10.40
2023-05-24T11:32:06.835Z,6.60
2023-05-24T11:33:06.828Z,8.90
2023-05-24T11:34:06.767Z,7.70
2023-05-24T11:35:06.756Z,8.50
2023-05-24T11:36:06.740Z,11.20
2023-05-24T11:37:06.746Z,6.20
2023-05-24T11:38:06.758Z,9.00
2023-05-24T11:39:06.710Z,8.80
2023-05-24T11:40:06.695Z,8.70
2023-05-24T11:41:06.690Z,9.10
2023-05-24T11:42:06.724Z,10.50
2023-05-24T11:43:06.672Z,8.30
2023-05-24T11:44:08.415Z,10.30
2023-05-24T11:45:06.636Z,8.90
2023-05-24T11:46:07.343Z,9.50
2023-05-24T11:47:06.606Z,9.50
2023-05-24T11:48:06.660Z,8.80
2023-05-24T11:49:06.595Z,7.90
2023-05-24T11:50:06.576Z,8.10
2023-05-24T11:51:06.598Z,8.40
2023-05-24T11:52:06.578Z,11.70
2023-05-24T11:53:06.554Z,9.20
2023-05-24T11:54:06.557Z,8.80
2023-05-24T11:55:06.536Z,8.40
2023-05-24T11:56:06.546Z,9.50
2023-05-24T11:57:06.538Z,8.90
2023-05-24T11:58:06.490Z,7.30
2023-05-24T11:59:06.485Z,8.10
2023-05-24T12:00:06.496Z,4.30
2023-05-24T12:01:06.465Z,9.80
2023-05-24T12:02:06.549Z,7.50
2023-05-24T12:03:06.472Z,8.70
2023-05-24T12:04:06.529Z,7.80
2023-05-24T12:05:06.605Z,8.70
2023-05-24T12:06:06.400Z,9.50
2023-05-24T12:07:06.406Z,9.40
2023-05-24T12:08:06.372Z,8.00
2023-05-24T12:09:07.409Z,5.80
2023-05-24T12:10:06.654Z,9.10
2023-05-24T12:11:06.344Z,7.50
2023-05-24T12:12:06.334Z,5.90
2023-05-24T12:13:06.319Z,7.50
2023-05-24T12:14:06.324Z,6.40
2023-05-24T12:15:06.308Z,7.30
2023-05-24T12:16:06.334Z,6.50
2023-05-24T12:17:06.277Z,6.90
2023-05-24T12:18:06.298Z,7.70
2023-05-24T12:19:14.059Z,9.30
2023-05-24T12:20:07.261Z,6.10
2023-05-24T12:21:06.232Z,6.20
2023-05-24T12:22:06.541Z,7.00
2023-05-24T12:23:06.246Z,7.10
2023-05-24T12:24:06.210Z,5.60
2023-05-24T12:25:06.205Z,5.20
2023-05-24T12:26:06.212Z,6.40
2023-05-24T12:27:06.158Z,6.70
2023-05-24T12:28:06.169Z,6.20
2023-05-24T12:29:06.146Z,7.90
2023-05-24T12:30:06.129Z,6.70
2023-05-24T12:31:06.134Z,7.80
2023-05-24T12:32:06.104Z,7.10
2023-05-24T12:33:06.146Z,7.70
2023-05-24T12:34:06.076Z,5.80
2023-05-24T12:35:06.073Z,3.80
2023-05-24T12:36:06.064Z,7.30
2023-05-24T12:37:06.072Z,9.10
2023-05-24T12:38:06.045Z,9.80
2023-05-24T12:39:06.055Z,8.00
2023-05-24T12:40:06.012Z,6.60
2023-05-24T12:41:12.422Z,5.60
2023-05-24T12:42:07.021Z,5.70
2023-05-24T12:43:06.014Z,6.10
2023-05-24T12:44:05.985Z,5.50
2023-05-24T12:45:05.961Z,5.40
2023-05-24T12:46:05.941Z,4.50
2023-05-24T12:47:05.978Z,5.20
2023-05-24T12:48:06.914Z,5.40
2023-05-24T12:49:05.919Z,5.10
2023-05-24T12:50:06.016Z,4.10
2023-05-24T12:51:05.900Z,4.10
2023-05-24T12:52:06.691Z,4.50
2023-05-24T12:53:05.865Z,6.60
2023-05-24T12:54:05.877Z,5.20
2023-05-24T12:55:05.843Z,4.80
2023-05-24T12:56:05.878Z,7.30
2023-05-24T12:57:05.822Z,5.00
2023-05-24T12:58:05.834Z,3.40
2023-05-24T12:59:05.800Z,6.70
2023-05-24T13:00:05.822Z,3.40